Time;durP1;ratioP1;P1;durP2;ratioP2;P2;SDS_P1;SDS_P2;PMS_P1;PMS_P2;Temp;Humidity;BMP_temperature;BMP_pressure;BME280_temperature;BME280_humidity;BME280_pressure;Samples;Min_cycle;Max_cycle;Signal;HPM_P1;HPM_P2
2022/06/12 00:01:21;;;;;;;9.10;2.20;;;14.60;99.90;;;;;;5076015;28;20044;-73
2022/06/12 00:03:50;;;;;;;6.95;2.42;;;14.60;99.90;;;;;;5076302;28;20135;-71
2022/06/12 00:06:17;;;;;;;8.40;2.50;;;14.50;99.90;;;;;;5058767;28;20135;-71
2022/06/12 00:08:43;;;;;;;11.25;2.80;;;14.50;99.90;;;;;;5076870;28;20485;-74
2022/06/12 00:11:11;;;;;;;7.18;2.60;;;14.50;99.90;;;;;;5076036;28;20063;-72
2022/06/12 00:13:41;;;;;;;6.38;2.20;;;14.40;99.90;;;;;;5076299;28;20135;-71
2022/06/12 00:16:09;;;;;;;9.77;3.50;;;14.40;99.90;;;;;;5076075;28;20048;-72
2022/06/12 00:18:37;;;;;;;14.30;2.78;;;14.40;99.90;;;;;;5075839;28;20056;-71
2022/06/12 00:21:13;;;;;;;8.55;2.33;;;14.40;99.90;;;;;;5057966;28;20086;-71
2022/06/12 00:23:46;;;;;;;6.93;2.50;;;14.30;99.90;;;;;;5075856;28;20059;-71
2022/06/12 00:26:15;;;;;;;9.07;2.33;;;14.20;99.90;;;;;;5076090;28;20139;-71
2022/06/12 00:28:41;;;;;;;10.32;3.00;;;14.20;99.90;;;;;;5075580;28;20048;-71
2022/06/12 00:31:07;;;;;;;4.85;2.65;;;14.20;99.90;;;;;;5075404;28;20432;-73
2022/06/12 00:33:33;;;;;;;6.07;2.85;;;14.10;99.90;;;;;;5057660;28;20071;-72
2022/06/12 00:35:59;;;;;;;10.68;2.55;;;14.10;99.90;;;;;;5075672;28;20061;-71
2022/06/12 00:38:25;;;;;;;8.75;3.08;;;14.10;99.90;;;;;;5075622;28;20113;-72
2022/06/12 00:40:51;;;;;;;11.77;2.58;;;14.10;99.90;;;;;;5055174;28;20048;-70
2022/06/12 00:43:19;;;;;;;7.53;3.05;;;14.00;99.90;;;;;;5051437;28;20076;-74
2022/06/12 00:45:47;;;;;;;7.70;2.72;;;14.00;99.90;;;;;;5074465;28;20052;-73
2022/06/12 00:48:25;;;;;;;11.98;3.42;;;14.00;99.90;;;;;;5074629;28;20113;-71
2022/06/12 00:51:19;;;;;;;8.68;3.45;;;14.00;99.90;;;;;;5074361;28;20049;-72
2022/06/12 00:53:56;;;;;;;11.00;2.92;;;14.00;99.90;;;;;;5071189;28;20048;-74
2022/06/12 00:56:23;;;;;;;9.80;2.70;;;14.00;99.90;;;;;;5075537;28;20053;-71
2022/06/12 00:59:11;;;;;;;9.73;3.15;;;13.90;99.90;;;;;;5071204;28;20524;-72
2022/06/12 01:01:45;;;;;;;10.93;2.97;;;13.90;99.90;;;;;;5054409;28;20045;-71
2022/06/12 01:07:01;;;;;;;5.78;2.63;;;13.90;99.90;;;;;;5037401;28;20064;-74
2022/06/12 01:09:32;;;;;;;12.27;2.75;;;13.80;99.90;;;;;;5063684;28;20048;-71
2022/06/12 01:12:01;;;;;;;9.07;2.40;;;13.80;99.90;;;;;;5056672;28;20048;-73
2022/06/12 01:14:32;;;;;;;12.68;4.47;;;13.70;99.90;;;;;;5075146;28;20095;-74
2022/06/12 01:17:00;;;;;;;13.00;3.20;;;13.70;99.90;;;;;;5075025;28;20099;-71
2022/06/12 01:19:34;;;;;;;7.25;2.78;;;13.70;99.90;;;;;;5074606;28;20390;-72
2022/06/12 01:22:50;;;;;;;8.68;2.28;;;13.60;99.90;;;;;;5074919;28;20045;-73
2022/06/12 01:25:39;;;;;;;6.28;3.05;;;13.60;99.90;;;;;;4996545;28;20136;-72
2022/06/12 01:28:27;;;;;;;8.70;3.00;;;13.50;99.90;;;;;;5016554;28;20061;-72
2022/06/12 01:31:06;;;;;;;7.72;3.20;;;13.50;99.90;;;;;;5003130;28;20624;-71
2022/06/12 01:34:04;;;;;;;10.65;2.80;;;13.50;99.90;;;;;;5052498;28;20068;-73
2022/06/12 01:36:34;;;;;;;9.82;2.85;;;13.50;99.90;;;;;;5051747;28;20409;-71
2022/06/12 01:39:21;;;;;;;8.02;2.92;;;13.60;99.90;;;;;;5036838;28;20052;-71
2022/06/12 01:42:17;;;;;;;7.30;2.97;;;13.50;99.90;;;;;;5052405;28;20079;-73
2022/06/12 01:45:10;;;;;;;8.32;3.10;;;13.60;99.90;;;;;;5035570;28;20057;-71
2022/06/12 01:47:51;;;;;;;9.75;3.35;;;13.60;99.90;;;;;;5052154;28;20049;-73
2022/06/12 01:50:29;;;;;;;9.50;4.05;;;13.70;99.90;;;;;;5051641;28;20505;-73
2022/06/12 01:53:09;;;;;;;7.78;2.70;;;13.50;99.90;;;;;;5052195;28;20060;-72
2022/06/12 01:55:57;;;;;;;7.88;3.28;;;13.50;99.90;;;;;;5052013;28;20095;-72
2022/06/12 01:58:34;;;;;;;8.32;2.90;;;13.40;99.90;;;;;;5051816;28;20513;-71
2022/06/12 02:01:13;;;;;;;8.20;2.95;;;13.40;99.90;;;;;;5059341;28;20052;-71
2022/06/12 02:04:07;;;;;;;7.68;3.58;;;13.40;99.90;;;;;;5073997;28;20052;-74
2022/06/12 02:06:45;;;;;;;6.18;2.65;;;13.40;99.90;;;;;;5073787;28;20563;-71
2022/06/12 02:09:17;;;;;;;8.63;3.47;;;13.30;99.90;;;;;;5073068;28;20053;-71
2022/06/12 02:14:45;;;;;;;17.85;4.38;;;13.30;99.90;;;;;;5073717;28;20125;-71
2022/06/12 02:17:20;;;;;;;8.70;3.47;;;13.30;99.90;;;;;;5073555;28;20049;-71
2022/06/12 02:19:47;;;;;;;7.38;2.53;;;13.30;99.90;;;;;;5072141;28;20064;-71
2022/06/12 02:22:26;;;;;;;9.57;3.92;;;13.30;99.90;;;;;;5072031;28;20535;-74
2022/06/12 02:24:59;;;;;;;5.90;2.80;;;13.30;99.90;;;;;;5073637;28;20048;-74
2022/06/12 02:27:32;;;;;;;14.10;3.58;;;13.30;99.90;;;;;;5073382;28;20056;-72
2022/06/12 02:30:10;;;;;;;7.78;3.30;;;13.30;99.90;;;;;;5073488;28;20052;-72
2022/06/12 02:32:49;;;;;;;9.85;2.80;;;13.30;99.90;;;;;;5103701;28;20075;-71
2022/06/12 02:35:29;;;;;;;11.88;3.20;;;13.30;99.90;;;;;;5095821;28;20094;-71
2022/06/12 02:38:00;;;;;;;9.80;3.25;;;13.20;99.90;;;;;;5113808;28;20091;-71
2022/06/12 02:40:34;;;;;;;9.60;3.70;;;13.60;99.90;;;;;;5114014;28;20514;-71
2022/06/12 02:43:06;;;;;;;4.70;2.80;;;13.10;99.90;;;;;;5083953;28;20059;-71
2022/06/12 02:45:47;;;;;;;8.25;3.30;;;13.10;99.90;;;;;;5093585;28;20052;-71
2022/06/12 02:48:13;;;;;;;9.68;4.13;;;13.10;99.90;;;;;;5093506;28;20431;-71
2022/06/12 02:50:44;;;;;;;10.43;3.05;;;13.10;99.90;;;;;;5093281;28;20560;-71
2022/06/12 02:53:32;;;;;;;8.10;3.75;;;13.10;99.90;;;;;;5093282;28;20067;-72
2022/06/12 02:56:18;;;;;;;12.85;3.42;;;13.00;99.90;;;;;;5093288;28;20519;-74
2022/06/12 02:59:08;;;;;;;6.03;2.80;;;13.00;99.90;;;;;;5075271;28;20099;-72
2022/06/12 03:01:48;;;;;;;6.93;2.42;;;13.00;99.90;;;;;;5055259;28;20065;-71
2022/06/12 03:04:49;;;;;;;6.20;2.70;;;13.00;99.90;;;;;;5086443;28;20055;-73
2022/06/12 03:07:15;;;;;;;10.80;3.50;;;13.00;99.90;;;;;;5030738;28;20061;-74
2022/06/12 03:09:41;;;;;;;6.88;2.47;;;12.90;99.90;;;;;;5030825;28;20057;-72
2022/06/12 03:12:07;;;;;;;8.20;2.92;;;12.90;99.90;;;;;;5030748;28;20060;-71
2022/06/12 03:14:33;;;;;;;11.77;4.03;;;12.90;99.90;;;;;;5023480;28;20057;-71
2022/06/12 03:16:58;;;;;;;11.65;3.78;;;12.90;99.90;;;;;;5036139;28;20063;-71
2022/06/12 03:19:28;;;;;;;8.85;4.00;;;12.90;99.90;;;;;;5040859;28;20061;-71
2022/06/12 03:22:20;;;;;;;5.82;3.42;;;12.80;99.90;;;;;;5057326;28;20536;-71
2022/06/12 03:24:55;;;;;;;8.82;3.58;;;12.80;99.90;;;;;;5056835;28;20505;-73
2022/06/12 03:27:49;;;;;;;7.97;3.83;;;12.90;99.90;;;;;;5057216;28;20102;-71
2022/06/12 03:30:37;;;;;;;8.20;3.42;;;13.00;99.90;;;;;;5051585;28;20075;-71
2022/06/12 03:33:18;;;;;;;9.38;3.38;;;12.90;99.90;;;;;;5056989;28;20525;-72
2022/06/12 03:36:03;;;;;;;8.77;3.33;;;12.90;99.90;;;;;;5038046;28;20183;-71
2022/06/12 03:38:40;;;;;;;8.00;3.47;;;12.90;99.90;;;;;;5057190;28;20064;-72
2022/06/12 03:41:15;;;;;;;10.40;3.38;;;12.90;99.90;;;;;;5040619;28;20520;-72
2022/06/12 03:43:59;;;;;;;8.77;3.30;;;13.00;99.90;;;;;;5085281;28;20060;-71
2022/06/12 03:46:29;;;;;;;8.82;2.85;;;12.90;99.90;;;;;;5091287;28;20055;-72
2022/06/12 03:49:07;;;;;;;6.55;2.65;;;13.00;99.90;;;;;;5098911;28;20056;-74
2022/06/12 03:51:49;;;;;;;8.43;3.40;;;13.00;99.90;;;;;;5099297;28;20496;-71
2022/06/12 03:54:39;;;;;;;8.10;3.03;;;13.00;99.90;;;;;;5099647;28;20110;-74
2022/06/12 04:00:29;;;;;;;6.35;3.08;;;13.00;99.90;;;;;;5059166;28;20083;-71
2022/06/12 04:02:58;;;;;;;7.10;2.80;;;13.00;99.90;;;;;;5059071;28;20053;-71
2022/06/12 04:05:41;;;;;;;8.30;3.00;;;13.40;99.90;;;;;;5064210;28;20047;-72
2022/06/12 04:08:11;;;;;;;7.93;2.55;;;13.00;99.90;;;;;;5054635;28;20049;-71
2022/06/12 04:10:38;;;;;;;8.20;2.70;;;13.00;99.90;;;;;;5078082;28;20044;-74
2022/06/12 04:13:06;;;;;;;9.07;2.65;;;13.00;99.90;;;;;;5099545;28;20044;-71
2022/06/12 04:15:39;;;;;;;4.97;2.35;;;13.10;99.90;;;;;;5099352;28;20552;-71
2022/06/12 04:18:05;;;;;;;6.70;2.58;;;13.10;99.90;;;;;;5079950;28;20055;-73
2022/06/12 04:20:38;;;;;;;6.57;2.75;;;13.10;99.90;;;;;;5099303;28;20052;-71
2022/06/12 04:23:31;;;;;;;7.50;2.85;;;13.10;99.90;;;;;;5099168;28;20059;-71
2022/06/12 04:26:06;;;;;;;14.25;3.08;;;13.20;99.90;;;;;;5099449;28;20048;-73
2022/06/12 04:28:33;;;;;;;6.55;2.25;;;13.20;99.90;;;;;;5080943;28;20052;-71
2022/06/12 04:31:18;;;;;;;8.23;2.60;;;13.20;99.90;;;;;;5078470;28;20044;-71
2022/06/12 04:34:12;;;;;;;5.35;2.30;;;13.30;99.90;;;;;;5095875;28;20500;-73
2022/06/12 04:36:39;;;;;;;10.45;2.63;;;13.30;99.90;;;;;;5013755;28;20065;-74
2022/06/12 04:39:06;;;;;;;7.38;2.33;;;13.40;99.90;;;;;;5012118;28;20056;-71
2022/06/12 04:41:37;;;;;;;9.45;3.30;;;13.30;99.90;;;;;;5013791;28;20054;-73
2022/06/12 04:44:05;;;;;;;7.90;2.28;;;13.40;99.90;;;;;;4997969;28;20057;-71
2022/06/12 04:46:33;;;;;;;6.13;2.80;;;13.40;99.90;;;;;;4997590;28;20046;-71
2022/06/12 04:48:59;;;;;;;10.52;2.60;;;13.40;99.90;;;;;;5011954;28;20053;-74
2022/06/12 04:51:26;;;;;;;;;;;13.50;99.90;;;;;;4997767;28;20061;-73
2022/06/12 04:53:52;;;;;;;10.23;2.05;;;13.50;99.90;;;;;;4997237;28;19922;-73
2022/06/12 04:56:20;;;;;;;8.45;1.83;;;13.60;99.90;;;;;;4997447;28;20537;-72
2022/06/12 04:58:45;;;;;;;7.57;2.10;;;13.60;99.90;;;;;;5005652;28;20566;-71
2022/06/12 05:01:11;;;;;;;10.73;2.40;;;13.60;99.90;;;;;;4993640;28;20058;-72
2022/06/12 05:03:37;;;;;;;7.78;2.60;;;13.70;99.90;;;;;;4993907;28;20051;-73
2022/06/12 05:06:04;;;;;;;6.78;2.28;;;13.70;99.90;;;;;;4993740;28;20058;-71
2022/06/12 05:08:31;;;;;;;5.05;2.40;;;13.80;99.90;;;;;;4993819;28;20440;-71
2022/06/12 05:10:56;;;;;;;6.03;2.15;;;13.80;99.90;;;;;;4994301;28;20046;-71
2022/06/12 05:13:22;;;;;;;8.80;2.05;;;13.90;99.90;;;;;;5029563;28;20060;-74
2022/06/12 05:15:48;;;;;;;6.55;1.80;;;13.90;99.90;;;;;;5072352;28;20094;-70
2022/06/12 05:18:16;;;;;;;6.55;2.53;;;14.00;99.90;;;;;;5075125;28;20051;-71
2022/06/12 05:20:42;;;;;;;9.85;2.30;;;14.00;99.90;;;;;;5070930;28;20516;-71
2022/06/12 05:23:08;;;;;;;;;;;14.10;99.90;;;;;;5075347;28;20064;-71
2022/06/12 05:25:35;;;;;;;7.85;2.53;;;14.10;99.90;;;;;;5074890;28;19921;-71
2022/06/12 05:28:03;;;;;;;5.10;2.30;;;14.20;99.90;;;;;;5074689;28;20141;-73
2022/06/12 05:30:31;;;;;;;8.13;2.33;;;14.20;99.90;;;;;;5068931;28;20091;-72
2022/06/12 05:32:59;;;;;;;8.82;2.15;;;14.30;99.90;;;;;;5095318;28;20062;-73
2022/06/12 05:35:27;;;;;;;7.60;2.35;;;14.50;99.90;;;;;;5115272;28;20044;-71
2022/06/12 05:37:53;;;;;;;5.70;1.77;;;14.40;99.90;;;;;;5097145;28;20047;-72
2022/06/12 05:40:25;;;;;;;4.90;1.90;;;14.40;99.90;;;;;;5114903;28;20519;-73
2022/06/12 05:42:51;;;;;;;5.25;1.83;;;14.40;99.90;;;;;;5096717;28;20145;-72
2022/06/12 05:45:21;;;;;;;5.85;2.10;;;14.50;99.90;;;;;;5096544;28;20055;-71
2022/06/12 05:47:56;;;;;;;8.27;2.38;;;14.50;99.90;;;;;;5115072;28;20051;-71
2022/06/12 05:50:26;;;;;;;7.30;2.20;;;14.60;99.90;;;;;;5096790;28;20082;-72
2022/06/12 05:52:52;;;;;;;6.25;1.80;;;14.60;99.90;;;;;;5110061;28;20495;-71
2022/06/12 05:55:18;;;;;;;4.20;2.05;;;14.70;99.90;;;;;;5114784;28;20048;-71
2022/06/12 05:57:43;;;;;;;6.10;1.65;;;14.70;99.90;;;;;;5115330;28;20051;-72
2022/06/12 06:00:20;;;;;;;14.27;2.17;;;14.80;99.90;;;;;;5114830;28;20051;-72
2022/06/12 06:02:46;;;;;;;6.80;1.75;;;14.80;99.90;;;;;;5095131;28;20113;-71
2022/06/12 06:05:12;;;;;;;10.82;2.08;;;14.90;99.90;;;;;;5114859;28;20056;-72
2022/06/12 06:07:39;;;;;;;13.82;2.63;;;14.90;99.90;;;;;;5096739;28;20055;-73
2022/06/12 06:10:09;;;;;;;4.47;1.65;;;15.00;99.90;;;;;;5114538;28;20043;-71
2022/06/12 06:12:34;;;;;;;9.90;2.50;;;15.00;99.90;;;;;;5113619;28;20051;-74
2022/06/12 06:15:00;;;;;;;10.55;2.83;;;15.10;99.90;;;;;;5112487;28;20135;-71
2022/06/12 06:17:26;;;;;;;12.20;2.15;;;15.10;99.90;;;;;;5096439;28;20055;-71
2022/06/12 06:19:52;;;;;;;10.15;2.35;;;15.20;99.90;;;;;;5114279;28;20450;-71
2022/06/12 06:22:18;;;;;;;9.73;2.45;;;15.20;99.90;;;;;;5094304;28;20047;-72
2022/06/12 06:24:45;;;;;;;13.25;3.33;;;15.20;99.90;;;;;;5114120;28;20127;-71
2022/06/12 06:27:12;;;;;;;5.85;1.88;;;15.30;99.90;;;;;;5114437;28;20067;-71
2022/06/12 06:29:38;;;;;;;6.35;2.22;;;15.40;99.90;;;;;;5095293;28;20420;-74
2022/06/12 06:32:05;;;;;;;8.35;2.17;;;15.40;99.90;;;;;;5113721;28;20051;-71
2022/06/12 06:34:31;;;;;;;10.32;2.72;;;15.50;99.90;;;;;;5111858;28;20505;-73
2022/06/12 06:36:57;;;;;;;11.65;3.90;;;15.70;99.90;;;;;;5114020;28;20078;-72
2022/06/12 06:39:23;;;;;;;8.93;2.78;;;15.60;99.90;;;;;;5114007;28;20500;-73
2022/06/12 06:41:49;;;;;;;;;;;15.70;99.90;;;;;;5114738;28;20459;-72
2022/06/12 06:46:59;;;;;;;11.82;3.30;;;15.70;99.90;;;;;;5093513;28;20055;-74
2022/06/12 06:49:25;;;;;;;6.85;2.40;;;15.80;99.90;;;;;;5075782;28;20400;-71
2022/06/12 06:51:50;;;;;;;9.75;2.72;;;15.80;99.90;;;;;;5092762;28;20414;-72
2022/06/12 06:54:17;;;;;;;9.80;3.55;;;15.90;99.90;;;;;;5087833;28;20050;-71
2022/06/12 06:56:43;;;;;;;11.45;3.13;;;15.80;99.90;;;;;;5093486;28;20055;-71
2022/06/12 06:59:09;;;;;;;12.77;3.35;;;16.00;99.90;;;;;;5095328;28;20056;-71
2022/06/12 07:01:35;;;;;;;8.88;2.70;;;16.00;99.90;;;;;;5083337;28;20089;-72
2022/06/12 07:04:02;;;;;;;8.73;3.47;;;16.10;99.90;;;;;;5090333;28;20052;-74
2022/06/12 07:06:28;;;;;;;15.02;3.83;;;16.10;99.90;;;;;;5108996;28;20502;-71
2022/06/12 07:08:54;;;;;;;14.30;3.28;;;16.20;99.90;;;;;;5093177;28;20078;-71
2022/06/12 07:11:23;;;;;;;10.40;2.95;;;16.20;99.90;;;;;;5093656;28;20101;-71
2022/06/12 07:13:49;;;;;;;9.38;3.72;;;16.30;99.90;;;;;;5094861;28;20052;-74
2022/06/12 07:16:15;;;;;;;11.82;2.63;;;16.30;99.90;;;;;;5093249;28;20055;-74
2022/06/12 07:18:42;;;;;;;7.28;2.83;;;16.30;99.90;;;;;;5093212;28;20137;-71
2022/06/12 07:21:07;;;;;;;6.60;2.58;;;16.40;99.90;;;;;;5084972;28;20056;-71
2022/06/12 07:23:34;;;;;;;13.50;3.25;;;16.50;99.90;;;;;;5084881;28;20047;-72
2022/06/12 07:26:07;;;;;;;8.15;3.20;;;16.50;99.90;;;;;;5093188;28;20067;-71
2022/06/12 07:28:35;;;;;;;9.35;2.80;;;16.60;99.90;;;;;;5073213;28;20052;-72
2022/06/12 07:31:03;;;;;;;12.60;3.13;;;16.60;99.90;;;;;;5081410;28;20051;-71
2022/06/12 07:33:28;;;;;;;13.40;3.33;;;16.70;99.90;;;;;;5038556;28;20106;-71
2022/06/12 07:35:54;;;;;;;6.30;2.80;;;16.70;99.90;;;;;;5070597;28;20124;-74
2022/06/12 07:38:23;;;;;;;10.63;3.10;;;16.70;99.90;;;;;;5072692;28;20508;-74
2022/06/12 07:40:57;;;;;;;10.65;3.22;;;16.70;99.90;;;;;;5073006;28;20181;-71
2022/06/12 07:43:25;;;;;;;12.05;2.80;;;16.80;99.90;;;;;;5072865;28;20098;-73
2022/06/12 07:45:51;;;;;;;7.30;2.72;;;16.90;99.90;;;;;;5054724;28;20052;-72
2022/06/12 07:48:19;;;;;;;9.40;4.15;;;17.00;99.90;;;;;;5054856;28;20048;-74
2022/06/12 07:50:45;;;;;;;6.88;2.38;;;17.00;99.90;;;;;;5072577;28;20060;-71
2022/06/12 07:53:12;;;;;;;8.20;2.38;;;17.10;99.90;;;;;;5072574;28;20063;-71
2022/06/12 07:55:38;;;;;;;9.48;2.80;;;17.20;99.90;;;;;;5072301;28;20055;-71
2022/06/12 07:58:04;;;;;;;;;;;17.20;99.90;;;;;;5071822;28;20566;-72
2022/06/12 08:00:31;;;;;;;13.73;2.45;;;17.20;99.90;;;;;;5054695;28;19924;-71
2022/06/12 08:02:57;;;;;;;9.30;2.75;;;17.30;99.90;;;;;;5073194;28;20056;-71
2022/06/12 08:05:23;;;;;;;16.50;3.03;;;17.30;99.90;;;;;;5074616;28;20056;-72
2022/06/12 08:07:49;;;;;;;11.57;2.78;;;17.40;99.90;;;;;;5076216;28;20052;-72
2022/06/12 08:10:16;;;;;;;7.68;2.30;;;17.50;99.90;;;;;;5076445;28;20532;-71
2022/06/12 08:12:45;;;;;;;12.57;3.13;;;17.50;99.90;;;;;;5075038;28;20136;-72
2022/06/12 08:15:18;;;;;;;10.50;2.35;;;17.60;99.90;;;;;;5073504;28;20064;-71
2022/06/12 08:17:44;;;;;;;7.85;2.67;;;17.60;99.90;;;;;;5076113;28;20056;-71
2022/06/12 08:20:28;;;;;;;5.47;1.92;;;17.70;99.90;;;;;;5076085;28;20136;-70
2022/06/12 08:23:26;;;;;;;11.18;2.30;;;17.70;99.90;;;;;;5076200;28;20048;-71
2022/06/12 08:25:57;;;;;;;5.65;1.92;;;17.80;99.90;;;;;;5073260;28;20048;-72
2022/06/12 08:28:26;;;;;;;6.43;2.38;;;17.80;99.90;;;;;;5075008;28;20064;-71
2022/06/12 08:30:53;;;;;;;7.05;2.45;;;17.90;99.90;;;;;;5075605;28;20095;-72
2022/06/12 08:33:19;;;;;;;10.45;2.00;;;17.90;99.90;;;;;;5074515;28;20084;-74
2022/06/12 08:35:44;;;;;;;8.88;2.25;;;18.00;99.90;;;;;;5074198;28;20076;-72
2022/06/12 08:38:12;;;;;;;10.35;2.35;;;18.00;99.90;;;;;;5074852;28;20052;-72
2022/06/12 08:41:14;;;;;;;8.00;2.42;;;18.00;99.90;;;;;;5074221;28;20136;-71
2022/06/12 08:43:56;;;;;;;8.60;1.90;;;18.10;99.90;;;;;;5075867;28;20052;-73
2022/06/12 08:46:34;;;;;;;8.68;2.10;;;18.10;99.90;;;;;;5050466;28;20049;-71
2022/06/12 08:49:14;;;;;;;6.40;1.88;;;18.20;99.90;;;;;;5047321;28;20088;-73
2022/06/12 08:51:49;;;;;;;6.18;2.05;;;18.20;99.90;;;;;;5055361;28;20049;-74
2022/06/12 08:54:23;;;;;;;5.68;1.95;;;18.20;99.90;;;;;;5038101;28;20049;-73
2022/06/12 08:56:55;;;;;;;8.02;1.88;;;18.30;99.90;;;;;;5057346;28;20096;-71
2022/06/12 08:59:51;;;;;;;8.70;2.00;;;18.30;99.90;;;;;;5075116;28;20527;-71
2022/06/12 09:02:27;;;;;;;10.45;2.22;;;18.40;99.90;;;;;;5067417;28;20500;-71
2022/06/12 09:04:53;;;;;;;6.55;2.72;;;18.40;99.90;;;;;;5075724;28;20060;-71
2022/06/12 09:07:27;;;;;;;8.43;1.92;;;18.50;99.90;;;;;;5075435;28;20053;-70
2022/06/12 09:10:04;;;;;;;7.15;2.40;;;18.50;99.90;;;;;;5072514;28;20257;-74
2022/06/12 09:12:43;;;;;;;7.28;1.77;;;18.60;99.90;;;;;;5073383;28;20044;-72
2022/06/12 09:15:15;;;;;;;5.88;1.95;;;18.60;99.90;;;;;;5074656;28;20056;-71
2022/06/12 09:17:59;;;;;;;5.25;1.83;;;18.60;99.90;;;;;;5075132;28;20131;-71
2022/06/12 09:20:43;;;;;;;8.32;1.88;;;18.70;99.90;;;;;;5075053;28;20493;-71
2022/06/12 09:23:11;;;;;;;6.95;1.58;;;18.80;99.90;;;;;;5067212;28;20412;-71
2022/06/12 09:25:57;;;;;;;8.45;2.70;;;18.80;99.90;;;;;;5074547;28;20059;-71
2022/06/12 09:28:47;;;;;;;6.05;2.22;;;18.90;99.90;;;;;;5074746;28;20056;-72
2022/06/12 09:31:27;;;;;;;8.02;1.98;;;18.90;99.90;;;;;;5074586;28;20059;-72
2022/06/12 09:34:19;;;;;;;6.72;1.50;;;19.00;99.90;;;;;;5109491;28;20101;-72
2022/06/12 09:36:50;;;;;;;4.28;1.45;;;19.10;99.90;;;;;;5115337;28;20052;-74
2022/06/12 09:39:46;;;;;;;4.72;1.55;;;19.10;99.90;;;;;;5097073;28;20430;-72
2022/06/12 09:42:18;;;;;;;6.35;1.42;;;19.20;99.90;;;;;;5074142;28;20056;-73
2022/06/12 09:44:51;;;;;;;4.88;1.83;;;19.20;99.90;;;;;;5074891;28;20060;-71
2022/06/12 09:47:44;;;;;;;6.10;1.40;;;19.30;99.90;;;;;;5094898;28;20058;-72
2022/06/12 09:50:38;;;;;;;7.63;1.52;;;19.30;99.90;;;;;;5094663;28;20055;-71
2022/06/12 09:53:16;;;;;;;5.97;1.52;;;19.40;99.90;;;;;;5088510;28;20455;-71
2022/06/12 09:55:51;;;;;;;4.13;1.15;;;19.40;99.90;;;;;;5109607;28;20192;-72
2022/06/12 09:58:29;;;;;;;3.53;1.20;;;19.50;99.90;;;;;;5114932;28;20060;-71
2022/06/12 10:00:57;;;;;;;5.85;1.52;;;19.50;99.90;;;;;;5096678;28;20058;-71
2022/06/12 10:03:39;;;;;;;6.72;1.30;;;19.60;99.90;;;;;;5112562;28;20055;-73
2022/06/12 10:06:23;;;;;;;6.05;1.63;;;19.70;99.90;;;;;;5114838;28;20138;-71
2022/06/12 10:09:03;;;;;;;5.45;1.60;;;19.70;99.90;;;;;;5114720;28;20185;-71
2022/06/12 10:11:34;;;;;;;5.10;1.42;;;19.60;99.90;;;;;;5114437;28;20134;-71
2022/06/12 10:14:26;;;;;;;4.47;1.15;;;19.60;99.90;;;;;;5094939;28;20507;-72
2022/06/12 10:17:13;;;;;;;7.97;2.20;;;19.50;99.90;;;;;;5110312;28;20397;-71
2022/06/12 10:19:59;;;;;;;8.05;1.63;;;19.60;99.90;;;;;;5114392;28;20500;-74
2022/06/12 10:22:37;;;;;;;7.03;1.90;;;19.60;99.90;;;;;;5114535;28;20052;-72
2022/06/12 10:25:05;;;;;;;6.63;1.73;;;19.70;99.90;;;;;;5112793;28;20055;-71
2022/06/12 10:27:45;;;;;;;6.15;1.55;;;19.80;99.90;;;;;;5113417;28;20091;-72
2022/06/12 10:30:42;;;;;;;7.03;1.60;;;19.80;99.90;;;;;;5114103;28;20453;-72
2022/06/12 10:33:32;;;;;;;6.80;1.47;;;19.80;99.90;;;;;;5014808;28;20132;-71
2022/06/12 10:36:01;;;;;;;8.85;1.55;;;19.70;99.90;;;;;;5031000;28;20084;-72
2022/06/12 10:38:32;;;;;;;6.18;2.03;;;19.70;99.90;;;;;;5031342;28;20053;-74
2022/06/12 10:41:03;;;;;;;6.90;1.67;;;19.80;99.90;;;;;;5031398;28;20053;-73
2022/06/12 10:43:38;;;;;;;3.83;1.48;;;19.80;99.90;;;;;;5029339;28;20049;-71
2022/06/12 10:46:22;;;;;;;8.30;2.25;;;19.90;99.90;;;;;;5031350;28;20057;-73
2022/06/12 10:49:02;;;;;;;4.78;1.98;;;19.90;99.90;;;;;;5014996;28;20140;-72
2022/06/12 10:51:34;;;;;;;7.10;1.73;;;20.00;99.90;;;;;;5031119;28;20128;-71
2022/06/12 10:54:09;;;;;;;5.13;1.67;;;20.00;99.90;;;;;;5012497;28;20053;-72
2022/06/12 10:56:44;;;;;;;8.93;1.75;;;20.10;99.90;;;;;;5031129;28;20129;-71
2022/06/12 10:59:27;;;;;;;7.43;1.38;;;20.10;99.90;;;;;;5031219;28;20053;-71
2022/06/12 11:02:31;;;;;;;4.07;1.08;;;20.00;99.90;;;;;;5030922;28;20088;-73
2022/06/12 11:04:59;;;;;;;4.20;1.15;;;20.20;99.90;;;;;;4991748;28;20061;-71
2022/06/12 11:07:49;;;;;;;5.85;1.38;;;20.20;99.90;;;;;;4975703;28;20061;-72
2022/06/12 11:10:23;;;;;;;6.63;1.40;;;20.10;99.90;;;;;;5022463;28;20524;-72
2022/06/12 11:13:09;;;;;;;5.95;2.03;;;20.00;99.90;;;;;;5053697;28;20057;-71
2022/06/12 11:16:01;;;;;;;7.82;1.20;;;19.90;99.90;;;;;;5091065;28;20056;-71
2022/06/12 11:18:49;;;;;;;3.75;1.40;;;20.00;99.90;;;;;;5093161;28;20419;-71
2022/06/12 11:21:23;;;;;;;7.43;1.15;;;20.10;99.90;;;;;;5075608;28;20064;-71
2022/06/12 11:24:16;;;;;;;5.55;1.17;;;20.20;99.90;;;;;;5077657;28;20504;-70
2022/06/12 11:27:13;;;;;;;10.13;1.33;;;20.30;99.90;;;;;;5072950;28;20455;-71
2022/06/12 11:29:56;;;;;;;5.47;1.23;;;20.30;99.90;;;;;;5072780;28;20405;-71
2022/06/12 11:32:31;;;;;;;2.83;0.80;;;20.20;99.90;;;;;;5084105;28;20051;-72
2022/06/12 11:35:27;;;;;;;4.95;0.80;;;20.10;99.90;;;;;;5103309;28;20059;-72
2022/06/12 11:38:15;;;;;;;3.85;0.70;;;20.00;99.90;;;;;;5113800;28;20062;-73
2022/06/12 11:41:09;;;;;;;5.43;0.80;;;20.10;99.90;;;;;;5117775;28;20052;-71
2022/06/12 11:43:39;;;;;;;3.80;1.08;;;20.20;99.90;;;;;;5096708;28;20066;-70
2022/06/12 11:46:20;;;;;;;3.17;0.93;;;20.40;99.90;;;;;;5075531;28;20135;-71
2022/06/12 11:49:01;;;;;;;5.45;1.02;;;20.50;99.90;;;;;;5060768;28;20135;-72
2022/06/12 11:51:39;;;;;;;3.95;0.90;;;20.50;99.90;;;;;;5096977;28;20571;-72
2022/06/12 11:54:31;;;;;;;2.67;0.70;;;20.50;99.90;;;;;;5096583;28;20052;-70
2022/06/12 11:57:10;;;;;;;2.05;0.73;;;20.50;99.90;;;;;;5096800;28;20052;-72
2022/06/12 11:59:52;;;;;;;1.60;0.90;;;20.50;99.90;;;;;;5078632;28;20193;-72
2022/06/12 12:02:54;;;;;;;2.00;0.82;;;20.50;99.90;;;;;;5096725;28;20083;-71
2022/06/12 12:05:37;;;;;;;2.90;0.80;;;20.50;99.90;;;;;;5111339;28;20156;-71
2022/06/12 12:08:22;;;;;;;2.38;0.70;;;20.50;99.90;;;;;;5099153;28;20120;-71
2022/06/12 12:11:03;;;;;;;1.27;0.55;;;20.50;99.90;;;;;;5116944;28;20051;-71
2022/06/12 12:13:41;;;;;;;4.07;0.85;;;20.50;99.90;;;;;;5116865;28;20056;-72
2022/06/12 12:16:36;;;;;;;3.13;0.93;;;20.50;99.90;;;;;;5115566;28;20502;-71
2022/06/12 12:19:05;;;;;;;2.45;0.98;;;20.50;99.90;;;;;;5116853;28;20059;-74
2022/06/12 12:21:42;;;;;;;4.47;0.70;;;20.50;99.90;;;;;;5098813;28;20515;-71
2022/06/12 12:24:14;;;;;;;2.80;0.90;;;20.40;99.90;;;;;;5114870;28;20547;-71
2022/06/12 12:26:42;;;;;;;3.45;0.85;;;20.50;97.10;;;;;;5116757;28;20051;-72
2022/06/12 12:29:16;;;;;;;4.82;0.82;;;20.50;99.80;;;;;;5116775;28;20120;-72
2022/06/12 12:31:44;;;;;;;2.10;0.70;;;20.50;99.90;;;;;;5116112;28;20048;-73
2022/06/12 12:34:11;;;;;;;6.40;1.05;;;20.50;99.90;;;;;;5112973;28;20415;-72
2022/06/12 12:42:36;;;;;;;5.35;1.05;;;20.50;99.90;;;;;;5096042;28;20093;-71
2022/06/12 12:45:31;;;;;;;6.22;0.95;;;20.50;99.90;;;;;;5095468;28;20419;-71
2022/06/12 12:48:12;;;;;;;2.28;0.80;;;20.50;99.90;;;;;;5059453;28;20105;-72
2022/06/12 12:50:46;;;;;;;2.08;0.90;;;20.60;99.90;;;;;;5094773;28;20451;-73
2022/06/12 12:53:23;;;;;;;1.75;0.77;;;20.60;99.90;;;;;;5095868;28;20048;-72
2022/06/12 12:56:00;;;;;;;3.53;0.95;;;20.60;99.90;;;;;;5095536;28;20146;-71
2022/06/12 12:58:26;;;;;;;4.07;0.95;;;20.50;99.90;;;;;;5078005;28;20134;-74
2022/06/12 13:01:03;;;;;;;;;;;20.30;99.90;;;;;;5094136;28;20056;-72
2022/06/12 13:03:38;;;;;;;3.95;0.98;;;20.20;99.90;;;;;;5095608;28;20014;-70
2022/06/12 13:06:10;;;;;;;6.00;1.50;;;20.20;99.90;;;;;;5095534;28;20068;-71
2022/06/12 13:08:38;;;;;;;6.55;1.13;;;20.30;99.90;;;;;;5077912;28;20071;-72
2022/06/12 13:11:13;;;;;;;3.80;1.10;;;20.30;99.90;;;;;;5075023;28;20144;-71
2022/06/12 13:13:53;;;;;;;5.65;1.23;;;20.40;99.90;;;;;;5075184;28;20053;-71
2022/06/12 13:16:41;;;;;;;5.40;1.17;;;20.30;99.90;;;;;;5075103;28;20052;-73
2022/06/12 13:19:06;;;;;;;6.72;1.42;;;20.20;99.90;;;;;;5057443;28;20513;-72
2022/06/12 13:21:32;;;;;;;4.55;1.50;;;20.20;99.90;;;;;;5090097;28;20087;-71
2022/06/12 13:24:23;;;;;;;3.83;1.23;;;20.20;99.90;;;;;;5095341;28;20059;-73
2022/06/12 13:26:49;;;;;;;4.00;1.35;;;20.30;99.90;;;;;;5077186;28;20087;-72
2022/06/12 13:29:18;;;;;;;6.47;1.35;;;20.40;99.90;;;;;;5095310;28;20087;-71
2022/06/12 13:31:55;;;;;;;4.95;1.60;;;20.50;99.90;;;;;;5094351;28;20381;-71
2022/06/12 13:34:21;;;;;;;3.33;0.90;;;20.50;99.90;;;;;;5074477;28;20067;-73
2022/06/12 13:36:47;;;;;;;4.32;0.90;;;20.40;99.90;;;;;;5074600;28;20057;-74
2022/06/12 13:39:21;;;;;;;3.78;0.85;;;20.40;99.90;;;;;;5074649;28;20106;-73
2022/06/12 13:41:58;;;;;;;4.05;1.05;;;20.50;99.90;;;;;;5066775;28;20127;-71